Metar z pełnej godziny Komunikat METAR ze strony awiacja.imgw.pl Metar G00 EPWR METAR EPWR 200200Z 07002KT CAVOK 19/15 Q1016 =